首页
METAR-TAF:

METAR-TAF

机场 :

格尔夫波特, 密西西比州, 美国

纬度: 30-24-43N, 经度: 089-04-51W, 海拔: 8米

当前天气观测

该预报发布于26分钟前的15:00 UTC
风速15节,风向,有时为26节阵风
温度 14°C
湿度 88%
气压 1010 hPa
能見度: 16.1公里
多云层高于1000英尺
多云层高于1700英尺
多云层高于3000英尺

METAR: KGPT 291500Z 10015G26KT 10SM BKN010 BKN017 BKN030 14/12 A2983 RMK AO2 PK WND 11026/1457 CIG 008V014 T01390117

时间: 09:26 (15:26 UTC)

预报

该预报发布于11分钟前的15:15 UTC
预报有效从29日的 15点(UTC)到 30日的 12点(UTC)
风速15节,风向,有时为26节阵风
能見度: 10公里
多云层高于1000英尺
从 29日的 2000点(UTC)
风速6节,风向北转西北
能見度: 10公里
散云层高于1000英尺
多云层高于4500英尺
从 30日的 0000点(UTC)
风速9节,风向北转东北
能見度: 10公里
散云层高于2500英尺
多云层高于8000英尺
从 30日的 0600点(UTC)
风速7节,风向北转东北
能見度: 10公里
少量云层高于800英尺
散云层高于4500英尺

TAF: KGPT 291515Z 2915/3012 10015G26KT P6SM BKN010 FM292000 34006KT P6SM SCT010 BKN045 FM300000 02009KT P6SM SCT025 BKN080 FM300600 03007KT P6SM FEW008 SCT045

超过4000个机场的气象观测和天气预报(METAR&TAF报告)。

可查询的气象台以黄色和红色小点在地图上表示。

将鼠标移到小点上方,可查看气象台名称。

然后点击查看天气观测和预报。

如需切换地图:点击带黑十字的绿色按钮放大地图;点击带横线的绿色按钮缩小地图;或者点击绿色箭头查看邻近地区的地图。


METAR-TAF: